sensor_id;sensor_type;location;lat;lon;timestamp;pressure;altitude;pressure_sealevel;temperature;humidity
56456;BME280;42354;53.218;6.564;2023-07-31T00:01:32;47003.69;;;-142.92;100.00
56456;BME280;42354;53.218;6.564;2023-07-31T00:03:57;47003.69;;;-142.92;100.00
56456;BME280;42354;53.218;6.564;2023-07-31T00:06:23;46995.50;;;-142.92;100.00
56456;BME280;42354;53.218;6.564;2023-07-31T00:08:48;46993.44;;;-142.92;100.00
56456;BME280;42354;53.218;6.564;2023-07-31T00:11:13;46987.28;;;-142.92;100.00
56456;BME280;42354;53.218;6.564;2023-07-31T00:13:39;46997.53;;;-142.92;100.00
56456;BME280;42354;53.218;6.564;2023-07-31T00:16:06;47016.00;;;-142.92;100.00
56456;BME280;42354;53.218;6.564;2023-07-31T00:18:31;47024.22;;;-142.92;100.00
56456;BME280;42354;53.218;6.564;2023-07-31T00:20:56;46991.38;;;-142.92;100.00
56456;BME280;42354;53.218;6.564;2023-07-31T00:23:22;46991.38;;;-142.92;100.00
56456;BME280;42354;53.218;6.564;2023-07-31T00:25:47;46997.53;;;-142.92;100.00
56456;BME280;42354;53.218;6.564;2023-07-31T00:28:13;46991.38;;;-142.92;100.00
56456;BME280;42354;53.218;6.564;2023-07-31T00:30:38;46995.50;;;-142.92;100.00
56456;BME280;42354;53.218;6.564;2023-07-31T00:33:03;46993.44;;;-142.92;100.00
56456;BME280;42354;53.218;6.564;2023-07-31T00:35:29;46983.19;;;-142.92;100.00
56456;BME280;42354;53.218;6.564;2023-07-31T00:37:56;47003.69;;;-142.92;100.00
56456;BME280;42354;53.218;6.564;2023-07-31T00:40:21;47003.69;;;-142.92;100.00
56456;BME280;42354;53.218;6.564;2023-07-31T00:42:47;46993.44;;;-142.92;100.00
56456;BME280;42354;53.218;6.564;2023-07-31T00:45:12;47009.84;;;-142.92;100.00
56456;BME280;42354;53.218;6.564;2023-07-31T00:47:37;46989.34;;;-142.92;100.00
56456;BME280;42354;53.218;6.564;2023-07-31T00:50:04;46999.59;;;-142.92;100.00
56456;BME280;42354;53.218;6.564;2023-07-31T00:52:30;46989.34;;;-142.92;100.00
56456;BME280;42354;53.218;6.564;2023-07-31T00:54:56;46991.38;;;-142.92;100.00
56456;BME280;42354;53.218;6.564;2023-07-31T00:57:21;47007.81;;;-142.92;100.00
56456;BME280;42354;53.218;6.564;2023-07-31T00:59:47;46991.38;;;-142.92;100.00
56456;BME280;42354;53.218;6.564;2023-07-31T01:02:12;47005.75;;;-142.92;100.00
56456;BME280;42354;53.218;6.564;2023-07-31T01:04:37;47005.75;;;-142.92;100.00
56456;BME280;42354;53.218;6.564;2023-07-31T01:07:13;46989.34;;;-142.92;100.00
56456;BME280;42354;53.218;6.564;2023-07-31T01:09:52;47003.69;;;-142.92;100.00
56456;BME280;42354;53.218;6.564;2023-07-31T01:12:23;46987.28;;;-142.92;100.00
56456;BME280;42354;53.218;6.564;2023-07-31T01:15:06;46991.38;;;-142.92;100.00
56456;BME280;42354;53.218;6.564;2023-07-31T01:17:36;47011.91;;;-142.92;100.00
56456;BME280;42354;53.218;6.564;2023-07-31T01:20:04;46985.22;;;-142.92;100.00
56456;BME280;42354;53.218;6.564;2023-07-31T01:28:08;47221.22;;;-142.92;100.00
56456;BME280;42354;53.218;6.564;2023-07-31T01:30:39;47217.13;;;-142.92;100.00
56456;BME280;42354;53.218;6.564;2023-07-31T01:33:07;47206.88;;;-142.92;100.00
56456;BME280;42354;53.218;6.564;2023-07-31T01:35:34;47219.19;;;-142.92;100.00
56456;BME280;42354;53.218;6.564;2023-07-31T01:38:00;47215.06;;;-142.92;100.00
56456;BME280;42354;53.218;6.564;2023-07-31T01:40:26;47208.91;;;-142.92;100.00
56456;BME280;42354;53.218;6.564;2023-07-31T01:42:51;47221.22;;;-142.92;100.00
56456;BME280;42354;53.218;6.564;2023-07-31T01:45:18;47213.03;;;-142.92;100.00
56456;BME280;42354;53.218;6.564;2023-07-31T01:47:43;47213.03;;;-142.92;100.00
56456;BME280;42354;53.218;6.564;2023-07-31T01:50:09;47208.91;;;-142.92;100.00
56456;BME280;42354;53.218;6.564;2023-07-31T01:52:35;47213.03;;;-142.92;100.00
56456;BME280;42354;53.218;6.564;2023-07-31T01:55:00;47210.97;;;-142.92;100.00
56456;BME280;42354;53.218;6.564;2023-07-31T01:57:27;47213.03;;;-142.92;100.00
56456;BME280;42354;53.218;6.564;2023-07-31T01:59:52;47213.03;;;-142.92;100.00
56456;BME280;42354;53.218;6.564;2023-07-31T02:02:19;47210.97;;;-142.92;100.00
56456;BME280;42354;53.218;6.564;2023-07-31T02:04:45;47204.81;;;-142.92;100.00
56456;BME280;42354;53.218;6.564;2023-07-31T02:07:10;47204.81;;;-142.92;100.00
56456;BME280;42354;53.218;6.564;2023-07-31T02:09:36;47204.81;;;-142.92;100.00
56456;BME280;42354;53.218;6.564;2023-07-31T02:12:01;47208.91;;;-142.92;100.00
56456;BME280;42354;53.218;6.564;2023-07-31T02:14:27;47200.69;;;-142.92;100.00
56456;BME280;42354;53.218;6.564;2023-07-31T02:16:52;47196.59;;;-142.92;100.00
56456;BME280;42354;53.218;6.564;2023-07-31T02:19:18;47206.88;;;-142.92;100.00
56456;BME280;42354;53.218;6.564;2023-07-31T02:21:43;47196.59;;;-142.92;100.00
56456;BME280;42354;53.218;6.564;2023-07-31T02:24:08;47202.75;;;-142.92;100.00
56456;BME280;42354;53.218;6.564;2023-07-31T02:26:34;47206.88;;;-142.92;100.00
56456;BME280;42354;53.218;6.564;2023-07-31T02:28:59;47204.81;;;-142.92;100.00
56456;BME280;42354;53.218;6.564;2023-07-31T02:31:25;47204.81;;;-142.92;100.00
56456;BME280;42354;53.218;6.564;2023-07-31T02:33:50;47204.81;;;-142.92;100.00
56456;BME280;42354;53.218;6.564;2023-07-31T02:36:15;47194.56;;;-142.92;100.00
56456;BME280;42354;53.218;6.564;2023-07-31T02:38:42;47200.69;;;-142.92;100.00
56456;BME280;42354;53.218;6.564;2023-07-31T02:41:08;47194.56;;;-142.92;100.00
56456;BME280;42354;53.218;6.564;2023-07-31T02:43:33;47200.69;;;-142.92;100.00
56456;BME280;42354;53.218;6.564;2023-07-31T02:45:59;47192.50;;;-142.92;100.00
56456;BME280;42354;53.218;6.564;2023-07-31T02:48:24;47198.66;;;-142.92;100.00
56456;BME280;42354;53.218;6.564;2023-07-31T02:50:50;47196.59;;;-142.92;100.00
56456;BME280;42354;53.218;6.564;2023-07-31T02:53:15;47200.69;;;-142.92;100.00
56456;BME280;42354;53.218;6.564;2023-07-31T02:55:40;47200.69;;;-142.92;100.00
56456;BME280;42354;53.218;6.564;2023-07-31T02:58:06;47202.75;;;-142.92;100.00
56456;BME280;42354;53.218;6.564;2023-07-31T03:00:31;47208.91;;;-142.92;100.00
56456;BME280;42354;53.218;6.564;2023-07-31T03:02:57;47202.75;;;-142.92;100.00
56456;BME280;42354;53.218;6.564;2023-07-31T03:05:22;47196.59;;;-142.92;100.00
56456;BME280;42354;53.218;6.564;2023-07-31T03:07:48;47200.69;;;-142.92;100.00
56456;BME280;42354;53.218;6.564;2023-07-31T03:10:13;47198.66;;;-142.92;100.00
56456;BME280;42354;53.218;6.564;2023-07-31T03:12:40;47200.69;;;-142.92;100.00
56456;BME280;42354;53.218;6.564;2023-07-31T03:15:06;47200.69;;;-142.92;100.00
56456;BME280;42354;53.218;6.564;2023-07-31T03:17:31;47200.69;;;-142.92;100.00
56456;BME280;42354;53.218;6.564;2023-07-31T03:19:57;47200.69;;;-142.92;100.00
56456;BME280;42354;53.218;6.564;2023-07-31T03:22:22;47200.69;;;-142.92;100.00
56456;BME280;42354;53.218;6.564;2023-07-31T03:24:47;47204.81;;;-142.92;100.00
56456;BME280;42354;53.218;6.564;2023-07-31T03:27:13;47208.91;;;-142.92;100.00
56456;BME280;42354;53.218;6.564;2023-07-31T03:29:38;47208.91;;;-142.92;100.00
56456;BME280;42354;53.218;6.564;2023-07-31T03:32:04;47213.03;;;-142.92;100.00
56456;BME280;42354;53.218;6.564;2023-07-31T03:34:29;47210.97;;;-142.92;100.00
56456;BME280;42354;53.218;6.564;2023-07-31T03:36:57;47213.03;;;-142.92;100.00
56456;BME280;42354;53.218;6.564;2023-07-31T03:39:23;47215.06;;;-142.92;100.00
56456;BME280;42354;53.218;6.564;2023-07-31T03:41:48;47210.97;;;-142.92;100.00
56456;BME280;42354;53.218;6.564;2023-07-31T03:44:13;47213.03;;;-142.92;100.00
56456;BME280;42354;53.218;6.564;2023-07-31T03:46:39;47217.13;;;-142.92;100.00
56456;BME280;42354;53.218;6.564;2023-07-31T03:49:04;47219.19;;;-142.92;100.00
56456;BME280;42354;53.218;6.564;2023-07-31T03:51:30;47215.06;;;-142.92;100.00
56456;BME280;42354;53.218;6.564;2023-07-31T03:53:57;47219.19;;;-142.92;100.00
56456;BME280;42354;53.218;6.564;2023-07-31T03:56:22;47217.13;;;-142.92;100.00
56456;BME280;42354;53.218;6.564;2023-07-31T03:58:47;47221.22;;;-142.92;100.00
56456;BME280;42354;53.218;6.564;2023-07-31T04:01:13;47225.34;;;-142.92;100.00
56456;BME280;42354;53.218;6.564;2023-07-31T04:03:38;47225.34;;;-142.92;100.00
56456;BME280;42354;53.218;6.564;2023-07-31T04:06:04;47223.28;;;-142.92;100.00
56456;BME280;42354;53.218;6.564;2023-07-31T04:08:29;47225.34;;;-142.92;100.00
56456;BME280;42354;53.218;6.564;2023-07-31T04:10:54;47221.22;;;-142.92;100.00
56456;BME280;42354;53.218;6.564;2023-07-31T04:13:22;47221.22;;;-142.92;100.00
56456;BME280;42354;53.218;6.564;2023-07-31T04:15:50;47223.28;;;-142.92;100.00
56456;BME280;42354;53.218;6.564;2023-07-31T04:18:16;47219.19;;;-142.92;100.00
56456;BME280;42354;53.218;6.564;2023-07-31T04:20:41;47223.28;;;-142.92;100.00
56456;BME280;42354;53.218;6.564;2023-07-31T04:23:07;47223.28;;;-142.92;100.00
56456;BME280;42354;53.218;6.564;2023-07-31T04:25:32;47225.34;;;-142.92;100.00
56456;BME280;42354;53.218;6.564;2023-07-31T04:28:00;47227.38;;;-142.92;100.00
56456;BME280;42354;53.218;6.564;2023-07-31T04:30:25;47223.28;;;-142.92;100.00
56456;BME280;42354;53.218;6.564;2023-07-31T04:32:50;47227.38;;;-142.92;100.00
56456;BME280;42354;53.218;6.564;2023-07-31T04:35:16;47219.19;;;-142.92;100.00
56456;BME280;42354;53.218;6.564;2023-07-31T04:37:41;47221.22;;;-142.92;100.00
56456;BME280;42354;53.218;6.564;2023-07-31T04:40:07;47223.28;;;-142.92;100.00
56456;BME280;42354;53.218;6.564;2023-07-31T04:42:33;47219.19;;;-142.92;100.00
56456;BME280;42354;53.218;6.564;2023-07-31T04:44:59;47221.22;;;-142.92;100.00
56456;BME280;42354;53.218;6.564;2023-07-31T04:47:25;47217.13;;;-142.92;100.00
56456;BME280;42354;53.218;6.564;2023-07-31T04:49:50;47225.34;;;-142.92;100.00
56456;BME280;42354;53.218;6.564;2023-07-31T04:52:16;47219.19;;;-142.92;100.00
56456;BME280;42354;53.218;6.564;2023-07-31T04:54:41;47219.19;;;-142.92;100.00
56456;BME280;42354;53.218;6.564;2023-07-31T04:57:07;47225.34;;;-142.92;100.00
56456;BME280;42354;53.218;6.564;2023-07-31T04:59:32;47225.34;;;-142.92;100.00
56456;BME280;42354;53.218;6.564;2023-07-31T05:01:58;47225.34;;;-142.92;100.00
56456;BME280;42354;53.218;6.564;2023-07-31T05:04:23;47225.34;;;-142.92;100.00
56456;BME280;42354;53.218;6.564;2023-07-31T05:06:48;47225.34;;;-142.92;100.00
56456;BME280;42354;53.218;6.564;2023-07-31T05:09:14;47217.13;;;-142.92;100.00
56456;BME280;42354;53.218;6.564;2023-07-31T05:11:39;47225.34;;;-142.92;100.00
56456;BME280;42354;53.218;6.564;2023-07-31T05:14:06;47225.34;;;-142.92;100.00
56456;BME280;42354;53.218;6.564;2023-07-31T05:16:31;47221.22;;;-142.92;100.00
56456;BME280;42354;53.218;6.564;2023-07-31T05:19:04;47223.28;;;-142.92;100.00
56456;BME280;42354;53.218;6.564;2023-07-31T05:21:29;47227.38;;;-142.92;100.00
56456;BME280;42354;53.218;6.564;2023-07-31T05:23:54;47225.34;;;-142.92;100.00
56456;BME280;42354;53.218;6.564;2023-07-31T05:26:20;47225.34;;;-142.92;100.00
56456;BME280;42354;53.218;6.564;2023-07-31T05:28:45;47225.34;;;-142.92;100.00
56456;BME280;42354;53.218;6.564;2023-07-31T05:31:11;47227.38;;;-142.92;100.00
56456;BME280;42354;53.218;6.564;2023-07-31T05:33:36;47229.44;;;-142.92;100.00
56456;BME280;42354;53.218;6.564;2023-07-31T05:36:01;47231.50;;;-142.92;100.00
56456;BME280;42354;53.218;6.564;2023-07-31T05:38:27;47229.44;;;-142.92;100.00
56456;BME280;42354;53.218;6.564;2023-07-31T05:40:52;47227.38;;;-142.92;100.00
56456;BME280;42354;53.218;6.564;2023-07-31T05:43:18;47229.44;;;-142.92;100.00
56456;BME280;42354;53.218;6.564;2023-07-31T05:45:43;47231.50;;;-142.92;100.00
56456;BME280;42354;53.218;6.564;2023-07-31T05:48:08;47223.28;;;-142.92;100.00
56456;BME280;42354;53.218;6.564;2023-07-31T05:50:34;47227.38;;;-142.92;100.00
56456;BME280;42354;53.218;6.564;2023-07-31T05:52:59;47231.50;;;-142.92;100.00
56456;BME280;42354;53.218;6.564;2023-07-31T05:55:25;47231.50;;;-142.92;100.00
56456;BME280;42354;53.218;6.564;2023-07-31T05:57:54;47229.44;;;-142.92;100.00
56456;BME280;42354;53.218;6.564;2023-07-31T06:00:20;47227.38;;;-142.92;100.00
56456;BME280;42354;53.218;6.564;2023-07-31T06:02:46;47231.50;;;-142.92;100.00
56456;BME280;42354;53.218;6.564;2023-07-31T06:05:12;47225.34;;;-142.92;100.00
56456;BME280;42354;53.218;6.564;2023-07-31T06:07:37;47229.44;;;-142.92;100.00
56456;BME280;42354;53.218;6.564;2023-07-31T06:10:03;47227.38;;;-142.92;100.00
56456;BME280;42354;53.218;6.564;2023-07-31T06:12:35;47223.28;;;-142.92;100.00
56456;BME280;42354;53.218;6.564;2023-07-31T06:15:01;47231.50;;;-142.92;100.00
56456;BME280;42354;53.218;6.564;2023-07-31T06:17:27;47225.34;;;-142.92;100.00
56456;BME280;42354;53.218;6.564;2023-07-31T06:19:53;47227.38;;;-142.92;100.00
56456;BME280;42354;53.218;6.564;2023-07-31T06:22:18;47227.38;;;-142.92;100.00
56456;BME280;42354;53.218;6.564;2023-07-31T06:24:44;47227.38;;;-142.92;100.00
56456;BME280;42354;53.218;6.564;2023-07-31T06:27:10;47227.38;;;-142.92;100.00
56456;BME280;42354;53.218;6.564;2023-07-31T06:29:36;47229.44;;;-142.92;100.00
56456;BME280;42354;53.218;6.564;2023-07-31T06:32:01;47229.44;;;-142.92;100.00
56456;BME280;42354;53.218;6.564;2023-07-31T06:34:27;47231.50;;;-142.92;100.00
56456;BME280;42354;53.218;6.564;2023-07-31T06:36:52;47225.34;;;-142.92;100.00
56456;BME280;42354;53.218;6.564;2023-07-31T06:39:17;47229.44;;;-142.92;100.00
56456;BME280;42354;53.218;6.564;2023-07-31T06:41:43;47225.34;;;-142.92;100.00
56456;BME280;42354;53.218;6.564;2023-07-31T06:44:09;47229.44;;;-142.92;100.00
56456;BME280;42354;53.218;6.564;2023-07-31T06:46:35;47223.28;;;-142.92;100.00
56456;BME280;42354;53.218;6.564;2023-07-31T06:49:00;47231.50;;;-142.92;100.00
56456;BME280;42354;53.218;6.564;2023-07-31T06:51:26;47229.44;;;-142.92;100.00
56456;BME280;42354;53.218;6.564;2023-07-31T06:53:51;47223.28;;;-142.92;100.00
56456;BME280;42354;53.218;6.564;2023-07-31T06:56:16;47225.34;;;-142.92;100.00
56456;BME280;42354;53.218;6.564;2023-07-31T06:58:42;47219.19;;;-142.92;100.00
56456;BME280;42354;53.218;6.564;2023-07-31T07:01:08;47208.91;;;-142.92;100.00
56456;BME280;42354;53.218;6.564;2023-07-31T07:03:33;47198.66;;;-142.92;100.00
56456;BME280;42354;53.218;6.564;2023-07-31T07:05:59;47196.59;;;-142.92;100.00
56456;BME280;42354;53.218;6.564;2023-07-31T07:08:24;47192.50;;;-142.92;100.00
56456;BME280;42354;53.218;6.564;2023-07-31T07:10:50;47204.81;;;-142.92;100.00
56456;BME280;42354;53.218;6.564;2023-07-31T07:13:15;47210.97;;;-142.92;100.00
56456;BME280;42354;53.218;6.564;2023-07-31T07:15:43;47215.06;;;-142.92;100.00
56456;BME280;42354;53.218;6.564;2023-07-31T07:18:09;47227.38;;;-142.92;100.00
56456;BME280;42354;53.218;6.564;2023-07-31T07:20:35;47225.34;;;-142.92;100.00
56456;BME280;42354;53.218;6.564;2023-07-31T07:23:01;47217.13;;;-142.92;100.00
56456;BME280;42354;53.218;6.564;2023-07-31T07:25:26;47221.22;;;-142.92;100.00
56456;BME280;42354;53.218;6.564;2023-07-31T07:27:52;47217.13;;;-142.92;100.00
56456;BME280;42354;53.218;6.564;2023-07-31T07:30:18;47213.03;;;-142.92;100.00
56456;BME280;42354;53.218;6.564;2023-07-31T07:32:45;47219.19;;;-142.92;100.00
56456;BME280;42354;53.218;6.564;2023-07-31T07:35:10;47225.34;;;-142.92;100.00
56456;BME280;42354;53.218;6.564;2023-07-31T07:37:35;47217.13;;;-142.92;100.00
56456;BME280;42354;53.218;6.564;2023-07-31T07:40:01;47233.53;;;-142.92;100.00
56456;BME280;42354;53.218;6.564;2023-07-31T07:42:26;47225.34;;;-142.92;100.00
56456;BME280;42354;53.218;6.564;2023-07-31T07:44:51;47229.44;;;-142.92;100.00
56456;BME280;42354;53.218;6.564;2023-07-31T07:47:17;47225.34;;;-142.92;100.00
56456;BME280;42354;53.218;6.564;2023-07-31T07:49:42;47221.22;;;-142.92;100.00
56456;BME280;42354;53.218;6.564;2023-07-31T07:52:07;47215.06;;;-142.92;100.00
56456;BME280;42354;53.218;6.564;2023-07-31T07:54:33;47221.22;;;-142.92;100.00
56456;BME280;42354;53.218;6.564;2023-07-31T07:56:59;47210.97;;;-142.92;100.00
56456;BME280;42354;53.218;6.564;2023-07-31T07:59:24;47217.13;;;-142.92;100.00
56456;BME280;42354;53.218;6.564;2023-07-31T08:01:50;47221.22;;;-142.92;100.00
56456;BME280;42354;53.218;6.564;2023-07-31T08:04:15;47217.13;;;-142.92;100.00
56456;BME280;42354;53.218;6.564;2023-07-31T08:06:40;47217.13;;;-142.92;100.00
56456;BME280;42354;53.218;6.564;2023-07-31T08:09:06;47215.06;;;-142.92;100.00
56456;BME280;42354;53.218;6.564;2023-07-31T08:11:35;47217.13;;;-142.92;100.00
56456;BME280;42354;53.218;6.564;2023-07-31T08:14:00;47227.38;;;-142.92;100.00
56456;BME280;42354;53.218;6.564;2023-07-31T08:16:26;47221.22;;;-142.92;100.00
56456;BME280;42354;53.218;6.564;2023-07-31T08:18:51;47225.34;;;-142.92;100.00
56456;BME280;42354;53.218;6.564;2023-07-31T08:21:16;47229.44;;;-142.92;100.00
56456;BME280;42354;53.218;6.564;2023-07-31T08:23:42;47229.44;;;-142.92;100.00
56456;BME280;42354;53.218;6.564;2023-07-31T08:26:07;47225.34;;;-142.92;100.00
56456;BME280;42354;53.218;6.564;2023-07-31T08:28:33;47223.28;;;-142.92;100.00
56456;BME280;42354;53.218;6.564;2023-07-31T08:30:58;47223.28;;;-142.92;100.00
56456;BME280;42354;53.218;6.564;2023-07-31T08:33:23;47206.88;;;-142.92;100.00
56456;BME280;42354;53.218;6.564;2023-07-31T08:35:49;47204.81;;;-142.92;100.00
56456;BME280;42354;53.218;6.564;2023-07-31T08:38:14;47171.97;;;-142.92;100.00
56456;BME280;42354;53.218;6.564;2023-07-31T08:40:40;47192.50;;;-142.92;100.00
56456;BME280;42354;53.218;6.564;2023-07-31T08:43:07;47169.91;;;-142.92;100.00
56456;BME280;42354;53.218;6.564;2023-07-31T08:45:32;47157.59;;;-142.92;100.00
56456;BME280;42354;53.218;6.564;2023-07-31T08:47:58;47112.47;;;-142.92;100.00
56456;BME280;42354;53.218;6.564;2023-07-31T08:50:24;47139.13;;;-142.92;100.00
56456;BME280;42354;53.218;6.564;2023-07-31T08:52:51;47091.94;;;-142.92;100.00
56456;BME280;42354;53.218;6.564;2023-07-31T08:55:17;47071.41;;;-142.92;100.00
56456;BME280;42354;53.218;6.564;2023-07-31T08:57:43;47009.84;;;-142.92;100.00
56456;BME280;42354;53.218;6.564;2023-07-31T09:00:10;46968.81;;;-142.92;100.00
56456;BME280;42354;53.218;6.564;2023-07-31T09:02:41;46962.66;;;-142.92;100.00
56456;BME280;42354;53.218;6.564;2023-07-31T09:05:09;46950.34;;;-142.92;100.00
56456;BME280;42354;53.218;6.564;2023-07-31T09:07:35;46983.19;;;-142.92;100.00
56456;BME280;42354;53.218;6.564;2023-07-31T09:10:03;46970.88;;;-142.92;100.00
56456;BME280;42354;53.218;6.564;2023-07-31T09:12:29;46954.44;;;-142.92;100.00
56456;BME280;42354;53.218;6.564;2023-07-31T09:14:55;46995.50;;;-142.92;100.00
56456;BME280;42354;53.218;6.564;2023-07-31T09:17:35;46989.34;;;-142.92;100.00
56456;BME280;42354;53.218;6.564;2023-07-31T09:22:39;46991.38;;;-142.92;100.00
56456;BME280;42354;53.218;6.564;2023-07-31T09:25:18;47016.00;;;-142.92;100.00
56456;BME280;42354;53.218;6.564;2023-07-31T09:27:52;46989.34;;;-142.92;100.00
56456;BME280;42354;53.218;6.564;2023-07-31T09:30:18;46997.53;;;-142.92;100.00
56456;BME280;42354;53.218;6.564;2023-07-31T09:32:45;47007.81;;;-142.92;100.00
56456;BME280;42354;53.218;6.564;2023-07-31T09:35:22;47028.31;;;-142.92;100.00
56456;BME280;42354;53.218;6.564;2023-07-31T09:37:50;47057.06;;;-142.92;100.00
56456;BME280;42354;53.218;6.564;2023-07-31T09:40:29;47075.53;;;-142.92;100.00
56456;BME280;42354;53.218;6.564;2023-07-31T09:43:03;47102.19;;;-142.92;100.00
56456;BME280;42354;53.218;6.564;2023-07-31T09:45:29;47106.31;;;-142.92;100.00
56456;BME280;42354;53.218;6.564;2023-07-31T09:47:56;47061.16;;;-142.92;100.00
56456;BME280;42354;53.218;6.564;2023-07-31T09:50:23;47122.72;;;-142.92;100.00
56456;BME280;42354;53.218;6.564;2023-07-31T09:52:50;47167.88;;;-142.92;100.00
56456;BME280;42354;53.218;6.564;2023-07-31T09:55:16;47192.50;;;-142.92;100.00
56456;BME280;42354;53.218;6.564;2023-07-31T09:57:43;47219.19;;;-142.92;100.00
56456;BME280;42354;53.218;6.564;2023-07-31T10:00:10;47227.38;;;-142.92;100.00
56456;BME280;42354;53.218;6.564;2023-07-31T10:02:37;47227.38;;;-142.92;100.00
56456;BME280;42354;53.218;6.564;2023-07-31T10:05:04;47233.53;;;-142.92;100.00
56456;BME280;42354;53.218;6.564;2023-07-31T10:07:31;47223.28;;;-142.92;100.00
56456;BME280;42354;53.218;6.564;2023-07-31T10:10:00;47221.22;;;-142.92;100.00
56456;BME280;42354;53.218;6.564;2023-07-31T10:12:27;47217.13;;;-142.92;100.00
56456;BME280;42354;53.218;6.564;2023-07-31T10:14:57;47225.34;;;-142.92;100.00
56456;BME280;42354;53.218;6.564;2023-07-31T10:17:24;47221.22;;;-142.92;100.00
56456;BME280;42354;53.218;6.564;2023-07-31T10:19:51;47223.28;;;-142.92;100.00
56456;BME280;42354;53.218;6.564;2023-07-31T10:22:19;47217.13;;;-142.92;100.00
56456;BME280;42354;53.218;6.564;2023-07-31T10:24:45;47223.28;;;-142.92;100.00
56456;BME280;42354;53.218;6.564;2023-07-31T10:27:12;47213.03;;;-142.92;100.00
56456;BME280;42354;53.218;6.564;2023-07-31T10:29:42;47194.56;;;-142.92;100.00
56456;BME280;42354;53.218;6.564;2023-07-31T10:32:09;47194.56;;;-142.92;100.00
56456;BME280;42354;53.218;6.564;2023-07-31T10:34:39;47206.88;;;-142.92;100.00
56456;BME280;42354;53.218;6.564;2023-07-31T10:40:03;47196.59;;;-142.92;100.00
56456;BME280;42354;53.218;6.564;2023-07-31T10:42:31;47213.03;;;-142.92;100.00
56456;BME280;42354;53.218;6.564;2023-07-31T10:44:59;47210.97;;;-142.92;100.00
56456;BME280;42354;53.218;6.564;2023-07-31T10:47:25;47204.81;;;-142.92;100.00
56456;BME280;42354;53.218;6.564;2023-07-31T10:49:50;47217.13;;;-142.92;100.00
56456;BME280;42354;53.218;6.564;2023-07-31T10:52:20;47194.56;;;-142.92;100.00
56456;BME280;42354;53.218;6.564;2023-07-31T10:55:15;47227.38;;;-142.92;100.00
56456;BME280;42354;53.218;6.564;2023-07-31T10:57:45;47225.34;;;-142.92;100.00
56456;BME280;42354;53.218;6.564;2023-07-31T11:00:20;47237.66;;;-142.92;100.00
56456;BME280;42354;53.218;6.564;2023-07-31T11:03:05;47219.19;;;-142.92;100.00
56456;BME280;42354;53.218;6.564;2023-07-31T11:05:45;47217.13;;;-142.92;100.00
56456;BME280;42354;53.218;6.564;2023-07-31T11:08:18;47223.28;;;-142.92;100.00
56456;BME280;42354;53.218;6.564;2023-07-31T11:10:51;47213.03;;;-142.92;100.00
56456;BME280;42354;53.218;6.564;2023-07-31T11:13:30;47210.97;;;-142.92;100.00
56456;BME280;42354;53.218;6.564;2023-07-31T11:15:56;47196.59;;;-142.92;100.00
56456;BME280;42354;53.218;6.564;2023-07-31T11:18:22;47200.69;;;-142.92;100.00
56456;BME280;42354;53.218;6.564;2023-07-31T11:20:47;47219.19;;;-142.92;100.00
56456;BME280;42354;53.218;6.564;2023-07-31T11:23:17;47221.22;;;-142.92;100.00
56456;BME280;42354;53.218;6.564;2023-07-31T11:25:43;47213.03;;;-142.92;100.00
56456;BME280;42354;53.218;6.564;2023-07-31T11:28:14;47213.03;;;-142.92;100.00
56456;BME280;42354;53.218;6.564;2023-07-31T11:30:40;47223.28;;;-142.92;100.00
56456;BME280;42354;53.218;6.564;2023-07-31T11:33:07;47213.03;;;-142.92;100.00
56456;BME280;42354;53.218;6.564;2023-07-31T11:35:41;47221.22;;;-142.92;100.00
56456;BME280;42354;53.218;6.564;2023-07-31T11:38:07;47213.03;;;-142.92;100.00
56456;BME280;42354;53.218;6.564;2023-07-31T11:40:41;47219.19;;;-142.92;100.00
56456;BME280;42354;53.218;6.564;2023-07-31T11:43:07;47217.13;;;-142.92;100.00
56456;BME280;42354;53.218;6.564;2023-07-31T11:45:33;47213.03;;;-142.92;100.00
56456;BME280;42354;53.218;6.564;2023-07-31T11:48:00;47202.75;;;-142.92;100.00
56456;BME280;42354;53.218;6.564;2023-07-31T11:50:27;47200.69;;;-142.92;100.00
56456;BME280;42354;53.218;6.564;2023-07-31T11:53:00;47208.91;;;-142.92;100.00
56456;BME280;42354;53.218;6.564;2023-07-31T11:55:28;47206.88;;;-142.92;100.00
56456;BME280;42354;53.218;6.564;2023-07-31T11:57:56;47200.69;;;-142.92;100.00
56456;BME280;42354;53.218;6.564;2023-07-31T12:00:22;47208.91;;;-142.92;100.00
56456;BME280;42354;53.218;6.564;2023-07-31T12:02:48;47223.28;;;-142.92;100.00
56456;BME280;42354;53.218;6.564;2023-07-31T12:05:15;47208.91;;;-142.92;100.00
56456;BME280;42354;53.218;6.564;2023-07-31T12:07:49;47206.88;;;-142.92;100.00
56456;BME280;42354;53.218;6.564;2023-07-31T12:10:29;47206.88;;;-142.92;100.00
56456;BME280;42354;53.218;6.564;2023-07-31T12:15:32;47204.81;;;-142.92;100.00
56456;BME280;42354;53.218;6.564;2023-07-31T12:17:58;47213.03;;;-142.92;100.00
56456;BME280;42354;53.218;6.564;2023-07-31T12:20:24;47217.13;;;-142.92;100.00
56456;BME280;42354;53.218;6.564;2023-07-31T12:22:50;47213.03;;;-142.92;100.00
56456;BME280;42354;53.218;6.564;2023-07-31T12:25:16;47221.22;;;-142.92;100.00
56456;BME280;42354;53.218;6.564;2023-07-31T12:27:44;47229.44;;;-142.92;100.00
56456;BME280;42354;53.218;6.564;2023-07-31T12:30:29;47169.91;;;-142.92;100.00
56456;BME280;42354;53.218;6.564;2023-07-31T12:32:54;47188.38;;;-142.92;100.00
56456;BME280;42354;53.218;6.564;2023-07-31T12:35:20;47198.66;;;-142.92;100.00
56456;BME280;42354;53.218;6.564;2023-07-31T12:37:45;47210.97;;;-142.92;100.00
56456;BME280;42354;53.218;6.564;2023-07-31T12:40:11;47165.81;;;-142.92;100.00
56456;BME280;42354;53.218;6.564;2023-07-31T12:42:36;47188.38;;;-142.92;100.00